Time;durP1;ratioP1;P1;durP2;ratioP2;P2;SDS_P1;SDS_P2;PMS_P1;PMS_P2;Temp;Humidity;BMP_temperature;BMP_pressure;BME280_temperature;BME280_humidity;BME280_pressure;Samples;Min_cycle;Max_cycle;Signal;HPM_P1;HPM_P2
2024/02/17 00:01:36;;;;;;;;;;;;;;;9.88;70.46;99243.48;68489;1278;1016052;-69
2024/02/17 00:04:39;;;;;;;;;;;;;;;9.89;70.52;99245.88;68517;1278;1016199;-60
2024/02/17 00:07:41;;;;;;;;;;;;;;;9.86;70.32;99251.45;68530;1278;1014292;-70
2024/02/17 00:10:44;;;;;;;;;;;;;;;9.81;70.44;99252.73;68513;1278;1015655;-70
2024/02/17 00:13:46;;;;;;;;;;;;;;;9.84;70.51;99254.54;68493;1278;1015579;-69
2024/02/17 00:16:49;;;;;;;;;;;;;;;9.79;70.25;99252.33;68531;1278;1015967;-69
2024/02/17 00:19:52;;;;;;;;;;;;;;;9.71;69.75;99254.48;68517;1278;1015559;-70
2024/02/17 00:22:54;;;;;;;;;;;;;;;9.68;69.82;99255.66;68527;1278;1014869;-70
2024/02/17 00:25:57;;;;;;;;;;;;;;;9.61;70.47;99254.44;68513;1278;1015742;-69
2024/02/17 00:28:59;;;;;;;;;;;;;;;9.60;70.79;99250.83;68526;1278;1014952;-70
2024/02/17 00:32:02;;;;;;;;;;;;;;;9.56;70.79;99248.59;68490;1278;1015560;-63
2024/02/17 00:35:05;;;;;;;;;;;;;;;9.52;71.32;99253.33;68509;1278;1015981;-70
2024/02/17 00:38:08;;;;;;;;;;;;;;;9.55;71.23;99250.76;68507;1278;1015756;-70
2024/02/17 00:41:11;;;;;;;;;;;;;;;9.43;72.16;99252.73;68496;1278;1015286;-69
2024/02/17 00:44:13;;;;;;;;;;;;;;;9.41;71.93;99252.68;68517;1279;1015372;-69
2024/02/17 00:47:16;;;;;;;;;;;;;;;9.42;71.96;99252.28;68495;1278;1015432;-69
2024/02/17 00:50:18;;;;;;;;;;;;;;;9.39;72.12;99253.45;68497;1278;1016069;-69
2024/02/17 00:53:21;;;;;;;;;;;;;;;9.37;72.36;99252.35;68468;1278;1015723;-69
2024/02/17 00:56:24;;;;;;;;;;;;;;;9.34;72.93;99250.00;68498;1278;1015910;-70
2024/02/17 00:59:26;;;;;;;;;;;;;;;9.36;72.78;99249.23;68483;1278;1015991;-69
2024/02/17 01:02:32;;;;;;;;;;;;;;;9.36;73.33;99252.91;68507;1278;1016087;-70
2024/02/17 01:05:36;;;;;;;;;;;;;;;9.54;72.94;99241.52;68465;1278;1015945;-69
2024/02/17 01:08:39;;;;;;;;;;;;;;;9.66;72.23;99248.61;68519;1278;1016123;-70
2024/02/17 01:11:42;;;;;;;;;;;;;;;9.70;72.48;99244.09;68487;1278;1015009;-67
2024/02/17 01:14:44;;;;;;;;;;;;;;;9.61;72.83;99245.89;68505;1278;1015691;-70
2024/02/17 01:17:47;;;;;;;;;;;;;;;9.57;73.15;99244.68;68505;1278;1016140;-70
2024/02/17 01:20:50;;;;;;;;;;;;;;;9.63;72.81;99240.71;68493;1278;1015915;-68
2024/02/17 01:23:53;;;;;;;;;;;;;;;9.65;72.39;99238.73;68490;1278;1014714;-70
2024/02/17 01:26:56;;;;;;;;;;;;;;;9.60;72.64;99237.06;68505;1278;1015602;-68
2024/02/17 01:29:58;;;;;;;;;;;;;;;9.55;73.02;99234.66;68480;1278;1014627;-69
2024/02/17 01:33:01;;;;;;;;;;;;;;;9.51;73.66;99231.59;68496;1278;1015425;-70
2024/02/17 01:36:03;;;;;;;;;;;;;;;9.53;74.10;99235.30;68497;1278;1015959;-70
2024/02/17 01:39:06;;;;;;;;;;;;;;;9.60;73.82;99230.93;68472;1278;1015242;-69
2024/02/17 01:42:08;;;;;;;;;;;;;;;9.61;73.68;99230.02;68495;1278;1015589;-70
2024/02/17 01:45:11;;;;;;;;;;;;;;;9.69;73.36;99231.20;68496;1278;1015934;-70
2024/02/17 01:48:14;;;;;;;;;;;;;;;9.67;73.58;99230.95;68484;1279;1015907;-69
2024/02/17 01:51:17;;;;;;;;;;;;;;;9.67;74.21;99228.11;68487;1278;1015811;-66
2024/02/17 01:54:19;;;;;;;;;;;;;;;9.72;73.87;99228.94;68495;1278;1016210;-70
2024/02/17 01:57:22;;;;;;;;;;;;;;;9.73;74.12;99231.51;68477;1277;1015545;-70
2024/02/17 02:00:24;;;;;;;;;;;;;;;9.84;73.97;99231.84;68501;1278;1015156;-70
2024/02/17 02:03:27;;;;;;;;;;;;;;;9.85;73.58;99233.00;68504;1277;1015601;-69
2024/02/17 02:06:30;;;;;;;;;;;;;;;9.94;73.71;99229.20;68473;1278;1014535;-70
2024/02/17 02:09:32;;;;;;;;;;;;;;;10.11;73.36;99228.35;68503;1278;1016098;-70
2024/02/17 02:12:35;;;;;;;;;;;;;;;10.12;73.09;99229.51;68496;1278;1014988;-70
2024/02/17 02:15:38;;;;;;;;;;;;;;;10.11;73.36;99226.78;68494;1278;1015644;-70
2024/02/17 02:18:40;;;;;;;;;;;;;;;10.17;73.33;99226.80;68470;1278;1015319;-70
2024/02/17 02:21:43;;;;;;;;;;;;;;;10.21;73.10;99224.97;68490;1278;1015516;-68
2024/02/17 02:24:45;;;;;;;;;;;;;;;10.18;73.27;99222.73;68493;1278;1015576;-70
2024/02/17 02:27:48;;;;;;;;;;;;;;;10.21;73.52;99222.91;68477;1278;1015690;-69
2024/02/17 02:30:52;;;;;;;;;;;;;;;10.24;73.81;99219.60;68489;1278;1015661;-69
2024/02/17 02:33:54;;;;;;;;;;;;;;;10.31;74.27;99212.59;68486;1278;1015760;-70
2024/02/17 02:36:57;;;;;;;;;;;;;;;10.37;73.76;99210.20;68486;1279;1015214;-69
2024/02/17 02:39:59;;;;;;;;;;;;;;;10.44;74.17;99207.77;68501;1278;1015573;-69
2024/02/17 02:43:02;;;;;;;;;;;;;;;10.64;73.48;99208.02;68476;1278;1016222;-69
2024/02/17 02:46:05;;;;;;;;;;;;;;;10.82;73.19;99203.90;68495;1278;1015466;-69
2024/02/17 02:49:07;;;;;;;;;;;;;;;10.90;73.08;99206.06;68500;1278;1015653;-69
2024/02/17 02:52:10;;;;;;;;;;;;;;;11.00;73.13;99204.30;68476;1279;1015215;-69
2024/02/17 02:55:13;;;;;;;;;;;;;;;11.18;72.72;99202.27;68496;1278;1015928;-69
2024/02/17 02:58:15;;;;;;;;;;;;;;;11.18;72.88;99207.66;68475;1279;1015863;-70
2024/02/17 03:01:18;;;;;;;;;;;;;;;11.35;72.32;99204.07;68482;1278;1015757;-70
2024/02/17 03:04:20;;;;;;;;;;;;;;;11.52;71.30;99206.07;68469;1278;1015909;-69
2024/02/17 03:07:23;;;;;;;;;;;;;;;11.47;71.16;99206.34;68490;1278;1015584;-69
2024/02/17 03:10:26;;;;;;;;;;;;;;;11.49;71.64;99207.98;68480;1278;1015575;-66
2024/02/17 03:13:28;;;;;;;;;;;;;;;11.56;71.10;99212.30;68491;1278;1015681;-69
2024/02/17 03:16:31;;;;;;;;;;;;;;;11.70;70.18;99214.59;68494;1279;1015695;-69
2024/02/17 03:19:34;;;;;;;;;;;;;;;11.88;69.39;99212.34;68488;1279;1015668;-69
2024/02/17 03:22:36;;;;;;;;;;;;;;;11.92;68.74;99212.42;68495;1278;1015896;-69
2024/02/17 03:25:40;;;;;;;;;;;;;;;12.00;68.36;99215.66;68500;1278;1015267;-69
2024/02/17 03:28:43;;;;;;;;;;;;;;;12.03;68.14;99212.35;68486;1278;1016089;-69
2024/02/17 03:31:45;;;;;;;;;;;;;;;11.95;68.22;99215.42;68471;1278;1016184;-69
2024/02/17 03:34:48;;;;;;;;;;;;;;;12.04;68.22;99213.16;68490;1278;1015180;-70
2024/02/17 03:37:50;;;;;;;;;;;;;;;12.04;67.83;99216.49;68487;1278;1015832;-70
2024/02/17 03:40:53;;;;;;;;;;;;;;;12.14;67.62;99219.06;68478;1278;1016046;-69
2024/02/17 03:43:55;;;;;;;;;;;;;;;12.18;67.61;99222.50;68492;1278;1015403;-68
2024/02/17 03:46:58;;;;;;;;;;;;;;;12.17;67.07;99221.30;68472;1278;1015923;-69
2024/02/17 03:50:01;;;;;;;;;;;;;;;12.20;67.23;99220.91;68486;1278;1015603;-69
2024/02/17 03:53:03;;;;;;;;;;;;;;;12.21;66.99;99225.07;68490;1278;1015232;-69
2024/02/17 03:56:06;;;;;;;;;;;;;;;12.27;66.31;99221.52;68477;1278;1015832;-70
2024/02/17 03:59:09;;;;;;;;;;;;;;;12.32;65.74;99227.95;68481;1279;1016188;-69
2024/02/17 04:02:11;;;;;;;;;;;;;;;12.37;65.56;99225.88;68506;1278;1016100;-69
2024/02/17 04:05:14;;;;;;;;;;;;;;;12.39;65.14;99229.77;68490;1279;1016115;-69
2024/02/17 04:08:17;;;;;;;;;;;;;;;12.37;65.34;99231.83;68469;1278;1014709;-69
2024/02/17 04:11:20;;;;;;;;;;;;;;;12.37;65.20;99228.16;68477;1278;1016550;-69
2024/02/17 04:14:22;;;;;;;;;;;;;;;12.41;65.32;99238.76;68493;1278;1015757;-69
2024/02/17 04:17:25;;;;;;;;;;;;;;;12.45;65.10;99237.63;68504;1279;1016089;-69
2024/02/17 04:20:27;;;;;;;;;;;;;;;12.48;65.09;99239.39;68480;1278;1015870;-70
2024/02/17 04:23:30;;;;;;;;;;;;;;;12.52;64.86;99238.46;68486;1278;1015559;-69
2024/02/17 04:26:33;;;;;;;;;;;;;;;12.58;64.54;99239.33;68492;1278;1015243;-69
2024/02/17 04:29:35;;;;;;;;;;;;;;;12.57;64.92;99237.05;68492;1279;1015426;-69
2024/02/17 04:32:38;;;;;;;;;;;;;;;12.58;64.60;99236.12;68479;1278;1015667;-69
2024/02/17 04:35:40;;;;;;;;;;;;;;;12.59;64.90;99235.40;68491;1278;1014721;-69
2024/02/17 04:38:43;;;;;;;;;;;;;;;12.66;64.32;99236.36;68482;1278;1015269;-69
2024/02/17 04:41:46;;;;;;;;;;;;;;;12.73;64.16;99237.47;68466;1279;1016067;-69
2024/02/17 04:44:48;;;;;;;;;;;;;;;12.69;64.33;99236.70;68478;1278;1015953;-69
2024/02/17 04:47:51;;;;;;;;;;;;;;;12.63;64.56;99235.98;68483;1278;1015195;-69
2024/02/17 04:50:53;;;;;;;;;;;;;;;12.58;64.52;99235.78;68467;1278;1015640;-69
2024/02/17 04:53:56;;;;;;;;;;;;;;;12.65;63.95;99240.45;68492;1278;1015473;-70
2024/02/17 04:56:59;;;;;;;;;;;;;;;12.70;63.87;99248.38;68486;1278;1016328;-69
2024/02/17 05:00:01;;;;;;;;;;;;;;;12.72;63.33;99250.69;68503;1278;1016139;-69
2024/02/17 05:03:04;;;;;;;;;;;;;;;12.68;63.60;99251.30;68481;1278;1015879;-68
2024/02/17 05:06:08;;;;;;;;;;;;;;;12.68;63.83;99247.61;68476;1278;1015694;-69
2024/02/17 05:09:11;;;;;;;;;;;;;;;12.65;63.07;99252.04;68477;1279;1015713;-70
2024/02/17 05:12:13;;;;;;;;;;;;;;;12.61;64.08;99252.05;68493;1278;1015640;-70
2024/02/17 05:15:16;;;;;;;;;;;;;;;12.65;63.40;99254.31;68481;1278;1015886;-70
2024/02/17 05:18:19;;;;;;;;;;;;;;;12.64;63.44;99260.33;68488;1278;1014660;-69
2024/02/17 05:21:21;;;;;;;;;;;;;;;12.70;63.53;99265.60;68490;1278;1015386;-69
2024/02/17 05:24:24;;;;;;;;;;;;;;;12.75;62.71;99265.06;68494;1278;1015590;-69
2024/02/17 05:27:27;;;;;;;;;;;;;;;12.69;63.31;99270.86;68473;1278;1016044;-69
2024/02/17 05:30:29;;;;;;;;;;;;;;;12.82;62.90;99272.89;68481;1278;1015662;-69
2024/02/17 05:33:33;;;;;;;;;;;;;;;12.77;63.48;99274.74;68506;1279;1015940;-69
2024/02/17 05:36:35;;;;;;;;;;;;;;;12.79;63.06;99274.31;68487;1278;1016156;-70
2024/02/17 05:39:38;;;;;;;;;;;;;;;12.77;63.01;99274.93;68491;1278;1016187;-69
2024/02/17 05:42:40;;;;;;;;;;;;;;;12.95;62.37;99277.72;68497;1278;1016262;-69
2024/02/17 05:45:43;;;;;;;;;;;;;;;12.91;62.05;99279.67;68478;1278;1015297;-70
2024/02/17 05:48:46;;;;;;;;;;;;;;;12.92;62.13;99281.39;68488;1278;1016091;-69
2024/02/17 05:51:48;;;;;;;;;;;;;;;12.90;61.85;99290.64;68485;1279;1015541;-70
2024/02/17 05:54:51;;;;;;;;;;;;;;;12.89;61.25;99296.70;68494;1278;1015284;-69
2024/02/17 05:57:53;;;;;;;;;;;;;;;12.86;60.97;99298.14;68502;1278;1015703;-69
2024/02/17 06:01:00;;;;;;;;;;;;;;;12.88;61.50;99307.25;68492;1278;1014557;-68
2024/02/17 06:04:03;;;;;;;;;;;;;;;12.86;61.57;99311.60;68471;1278;1016013;-69
2024/02/17 06:07:05;;;;;;;;;;;;;;;12.92;61.59;99314.75;68487;1278;1016559;-69
2024/02/17 06:10:08;;;;;;;;;;;;;;;12.94;60.80;99323.38;68511;1278;1015994;-69
2024/02/17 06:13:10;;;;;;;;;;;;;;;12.99;61.23;99323.95;68475;1278;1015518;-69
2024/02/17 06:16:13;;;;;;;;;;;;;;;12.95;62.20;99329.14;68502;1278;1015676;-69
2024/02/17 06:22:38;;;;;;;;;;;;;;;12.91;64.72;99347.78;68425;1278;1016106;-63
2024/02/17 06:25:40;;;;;;;;;;;;;;;12.79;65.51;99346.97;68514;1278;1015564;-69
2024/02/17 06:28:43;;;;;;;;;;;;;;;12.70;66.76;99352.59;68474;1279;1016095;-69
2024/02/17 06:31:46;;;;;;;;;;;;;;;12.63;67.89;99358.09;68496;1278;1015960;-69
2024/02/17 06:34:50;;;;;;;;;;;;;;;12.56;68.67;99358.38;68487;1279;1015176;-69
2024/02/17 06:37:53;;;;;;;;;;;;;;;12.48;69.68;99354.98;68528;1278;1015812;-69
2024/02/17 06:40:55;;;;;;;;;;;;;;;12.40;70.35;99360.52;68477;1279;1015283;-69
2024/02/17 06:43:58;;;;;;;;;;;;;;;12.38;71.31;99363.44;68500;1278;1016040;-69
2024/02/17 06:47:00;;;;;;;;;;;;;;;12.37;71.32;99364.94;68496;1278;1015493;-70
2024/02/17 06:50:03;;;;;;;;;;;;;;;12.43;71.51;99370.34;68508;1279;1015942;-69
2024/02/17 06:53:05;;;;;;;;;;;;;;;12.50;71.55;99374.48;68503;1278;1015961;-70
2024/02/17 06:56:08;;;;;;;;;;;;;;;12.47;72.91;99374.35;68500;1278;1015548;-69
2024/02/17 06:59:10;;;;;;;;;;;;;;;12.34;73.60;99379.13;68506;1278;1015861;-69
2024/02/17 07:02:13;;;;;;;;;;;;;;;12.30;74.44;99382.88;68507;1278;1016311;-69
2024/02/17 07:05:15;;;;;;;;;;;;;;;12.17;75.43;99384.55;68503;1278;1015281;-69
2024/02/17 07:08:18;;;;;;;;;;;;;;;12.08;76.20;99390.60;68508;1278;1015582;-70
2024/02/17 07:11:20;;;;;;;;;;;;;;;12.16;76.19;99393.70;68486;1278;1015708;-70
2024/02/17 07:14:23;;;;;;;;;;;;;;;12.11;76.33;99396.25;68509;1278;1016026;-70
2024/02/17 07:17:26;;;;;;;;;;;;;;;12.06;77.00;99398.64;68497;1278;1015312;-69
2024/02/17 07:20:29;;;;;;;;;;;;;;;12.04;78.15;99401.20;68510;1278;1015375;-69
2024/02/17 07:23:32;;;;;;;;;;;;;;;12.06;78.22;99404.08;68518;1278;1015906;-70
2024/02/17 07:26:35;;;;;;;;;;;;;;;12.06;78.71;99407.42;68509;1278;1015289;-69
2024/02/17 07:29:38;;;;;;;;;;;;;;;11.93;80.11;99408.65;68500;1278;1015980;-70
2024/02/17 07:32:41;;;;;;;;;;;;;;;11.95;80.32;99405.05;68503;1278;1015178;-69
2024/02/17 07:35:45;;;;;;;;;;;;;;;11.89;80.82;99409.21;68513;1278;1016062;-70
2024/02/17 07:38:47;;;;;;;;;;;;;;;11.88;82.74;99414.02;68500;1279;1015631;-70
2024/02/17 07:41:50;;;;;;;;;;;;;;;11.93;82.19;99412.36;68530;1278;1015279;-70
2024/02/17 07:44:52;;;;;;;;;;;;;;;11.95;81.76;99418.90;68500;1278;1015273;-70
2024/02/17 07:47:55;;;;;;;;;;;;;;;11.99;81.83;99420.80;68515;1278;1016115;-69
2024/02/17 07:50:57;;;;;;;;;;;;;;;12.11;81.50;99413.95;68506;1278;1015728;-69
2024/02/17 07:54:00;;;;;;;;;;;;;;;12.20;81.49;99416.28;68506;1278;1015948;-70
2024/02/17 07:57:03;;;;;;;;;;;;;;;12.13;82.67;99416.42;68523;1278;1015214;-69
2024/02/17 08:00:05;;;;;;;;;;;;;;;12.12;83.82;99414.58;68518;1278;1016223;-70
2024/02/17 08:03:09;;;;;;;;;;;;;;;12.15;83.37;99417.77;65924;1278;5360131;-69
2024/02/17 08:06:14;;;;;;;;;;;;;;;12.15;83.14;99420.41;68510;1278;1015545;-70
2024/02/17 08:09:17;;;;;;;;;;;;;;;12.18;83.72;99422.86;68528;1278;1015187;-70
2024/02/17 08:12:29;;;;;;;;;;;;;;;12.10;84.29;99427.33;68438;1278;1016352;-69
2024/02/17 08:15:31;;;;;;;;;;;;;;;12.21;83.59;99426.21;68530;1278;1016187;-70
2024/02/17 08:18:34;;;;;;;;;;;;;;;12.22;83.88;99432.78;68527;1278;1015995;-69
2024/02/17 08:21:37;;;;;;;;;;;;;;;12.18;84.88;99430.90;68530;1278;1015385;-69
2024/02/17 08:24:39;;;;;;;;;;;;;;;12.14;85.99;99426.24;68508;1278;1016239;-70
2024/02/17 08:27:43;;;;;;;;;;;;;;;12.06;87.86;99437.60;68527;1278;1014654;-70
2024/02/17 08:30:46;;;;;;;;;;;;;;;12.02;88.02;99442.54;68504;1278;1015200;-70
2024/02/17 08:33:49;;;;;;;;;;;;;;;12.12;88.97;99441.98;68526;1278;1015379;-70
2024/02/17 08:36:52;;;;;;;;;;;;;;;12.16;88.45;99442.77;68541;1278;1015614;-69
2024/02/17 08:39:54;;;;;;;;;;;;;;;12.17;88.95;99440.10;68532;1278;1014515;-70
2024/02/17 08:42:57;;;;;;;;;;;;;;;12.29;88.72;99440.99;68518;1278;1015381;-68
2024/02/17 08:45:59;;;;;;;;;;;;;;;12.30;89.41;99453.73;68515;1278;1015623;-68
2024/02/17 08:49:02;;;;;;;;;;;;;;;12.32;89.45;99462.56;68517;1278;1016016;-69
2024/02/17 08:52:05;;;;;;;;;;;;;;;12.42;90.45;99459.33;68524;1278;1015912;-69
2024/02/17 08:55:07;;;;;;;;;;;;;;;12.53;90.56;99459.41;68519;1278;1015912;-69
2024/02/17 08:58:10;;;;;;;;;;;;;;;12.62;91.14;99458.52;68509;1278;1015809;-70
2024/02/17 09:01:13;;;;;;;;;;;;;;;12.73;90.64;99454.73;68527;1278;1014730;-69
2024/02/17 09:04:15;;;;;;;;;;;;;;;12.71;91.79;99462.54;68537;1278;1015873;-69
2024/02/17 09:07:18;;;;;;;;;;;;;;;12.75;93.29;99460.04;68510;1278;1015574;-69
2024/02/17 09:10:20;;;;;;;;;;;;;;;12.83;94.28;99476.77;68514;1278;1015640;-69
2024/02/17 09:13:23;;;;;;;;;;;;;;;12.79;95.04;99482.94;68525;1278;1015707;-70
2024/02/17 09:16:26;;;;;;;;;;;;;;;12.84;94.84;99481.77;68523;1278;1016113;-70
2024/02/17 09:19:31;;;;;;;;;;;;;;;12.84;95.96;99484.08;68492;1278;1016252;-69
2024/02/17 09:22:35;;;;;;;;;;;;;;;12.72;98.21;99496.20;68517;1278;1015259;-69
2024/02/17 09:25:39;;;;;;;;;;;;;;;12.69;98.94;99505.30;68507;1278;1016024;-70
2024/02/17 09:28:41;;;;;;;;;;;;;;;12.67;99.94;99509.65;68517;1278;1014371;-70
2024/02/17 09:31:44;;;;;;;;;;;;;;;12.79;99.89;99514.02;68514;1278;1015996;-69
2024/02/17 09:34:46;;;;;;;;;;;;;;;12.88;99.95;99517.37;68536;1278;1016065;-70
2024/02/17 09:37:49;;;;;;;;;;;;;;;13.01;99.15;99518.68;68524;1278;1015318;-69
2024/02/17 09:40:52;;;;;;;;;;;;;;;13.10;99.31;99525.52;68523;1278;1015377;-69
2024/02/17 09:43:55;;;;;;;;;;;;;;;13.13;100.00;99525.87;68516;1278;1015271;-70
2024/02/17 09:46:58;;;;;;;;;;;;;;;13.11;100.00;99529.31;68523;1278;1016095;-69
2024/02/17 09:50:02;;;;;;;;;;;;;;;13.24;99.67;99526.63;68521;1278;1015392;-69
2024/02/17 09:53:06;;;;;;;;;;;;;;;13.16;100.00;99535.48;68533;1278;1015960;-68
2024/02/17 09:56:08;;;;;;;;;;;;;;;13.21;99.98;99538.20;68511;1278;1015431;-69
2024/02/17 09:59:13;;;;;;;;;;;;;;;13.27;99.82;99534.14;68548;1278;1016120;-69
2024/02/17 10:02:15;;;;;;;;;;;;;;;13.21;100.00;99540.66;68504;1278;1015522;-68
2024/02/17 10:05:19;;;;;;;;;;;;;;;13.18;100.00;99540.52;68526;1278;1015121;-69
2024/02/17 10:08:22;;;;;;;;;;;;;;;13.18;100.00;99545.41;68531;1278;1016002;-69
2024/02/17 10:11:25;;;;;;;;;;;;;;;13.25;100.00;99541.65;68536;1278;1015515;-69
2024/02/17 10:14:28;;;;;;;;;;;;;;;13.39;100.00;99536.06;68524;1278;1015646;-69
2024/02/17 10:17:30;;;;;;;;;;;;;;;13.47;100.00;99532.95;68514;1278;1015619;-69
2024/02/17 10:20:33;;;;;;;;;;;;;;;13.55;100.00;99529.70;68544;1278;1015663;-69
2024/02/17 10:23:35;;;;;;;;;;;;;;;13.59;99.99;99530.48;68530;1278;1016038;-69
2024/02/17 10:26:38;;;;;;;;;;;;;;;13.66;100.00;99532.84;68520;1278;1016864;-69
2024/02/17 10:29:40;;;;;;;;;;;;;;;13.68;99.82;99536.05;68517;1278;1016028;-69
2024/02/17 10:32:43;;;;;;;;;;;;;;;13.77;98.81;99537.12;68542;1278;1015531;-70
2024/02/17 10:35:47;;;;;;;;;;;;;;;13.79;98.48;99535.53;68531;1278;1015450;-70
2024/02/17 10:38:50;;;;;;;;;;;;;;;13.93;98.60;99530.80;68548;1278;1014370;-70
2024/02/17 10:41:53;;;;;;;;;;;;;;;13.94;99.49;99524.27;68514;1278;1016174;-69
2024/02/17 10:44:55;;;;;;;;;;;;;;;13.95;98.40;99529.66;68529;1278;1016121;-70
2024/02/17 10:47:58;;;;;;;;;;;;;;;13.97;99.50;99530.19;68525;1278;1015167;-68
2024/02/17 10:51:00;;;;;;;;;;;;;;;14.01;99.44;99531.71;68526;1278;1015297;-69
2024/02/17 10:54:03;;;;;;;;;;;;;;;13.98;98.62;99529.45;68513;1278;1015844;-69
2024/02/17 10:57:05;;;;;;;;;;;;;;;13.88;99.51;99534.65;68537;1278;1015657;-70
2024/02/17 11:00:08;;;;;;;;;;;;;;;13.82;100.00;99540.45;68527;1278;1015895;-69
2024/02/17 11:03:12;;;;;;;;;;;;;;;13.81;100.00;99535.09;68520;1278;1015707;-68
2024/02/17 11:06:15;;;;;;;;;;;;;;;13.78;100.00;99542.81;68517;1278;1015421;-63
2024/02/17 11:09:17;;;;;;;;;;;;;;;13.85;100.00;99545.59;68525;1278;1015878;-69
2024/02/17 11:12:20;;;;;;;;;;;;;;;13.82;100.00;99547.50;68536;1278;1015753;-69
2024/02/17 11:15:23;;;;;;;;;;;;;;;13.62;100.00;99551.90;68528;1278;1016362;-69
2024/02/17 11:18:25;;;;;;;;;;;;;;;13.60;100.00;99550.96;68530;1278;1015843;-69
2024/02/17 11:21:28;;;;;;;;;;;;;;;13.60;100.00;99557.80;68550;1278;1015980;-69
2024/02/17 11:24:31;;;;;;;;;;;;;;;13.60;100.00;99554.31;68538;1278;1016009;-69
2024/02/17 11:27:33;;;;;;;;;;;;;;;13.59;100.00;99557.04;68547;1278;1016032;-69
2024/02/17 11:30:36;;;;;;;;;;;;;;;13.53;100.00;99560.70;68537;1278;1015432;-69
2024/02/17 11:33:38;;;;;;;;;;;;;;;13.54;100.00;99563.63;68532;1278;1016141;-69
2024/02/17 11:36:41;;;;;;;;;;;;;;;13.54;100.00;99565.78;68533;1278;1015841;-69
2024/02/17 11:39:44;;;;;;;;;;;;;;;13.73;100.00;99565.96;68525;1278;1014633;-69
2024/02/17 11:42:46;;;;;;;;;;;;;;;13.80;100.00;99576.97;68528;1278;1015750;-69
2024/02/17 11:45:50;;;;;;;;;;;;;;;13.73;100.00;99572.33;68529;1278;1015801;-69
2024/02/17 11:48:52;;;;;;;;;;;;;;;13.68;100.00;99579.67;68530;1278;1015986;-69
2024/02/17 11:51:55;;;;;;;;;;;;;;;13.81;100.00;99582.38;68533;1278;1016100;-70
2024/02/17 11:54:57;;;;;;;;;;;;;;;13.80;100.00;99582.80;68531;1278;1015834;-63
2024/02/17 12:01:22;;;;;;;;;;;;;;;13.75;100.00;99583.44;68544;1278;1016014;-69
2024/02/17 12:04:26;;;;;;;;;;;;;;;13.69;100.00;99585.36;68431;1278;1015458;-68
2024/02/17 12:07:29;;;;;;;;;;;;;;;13.65;100.00;99585.44;68538;1278;1014425;-69
2024/02/17 12:10:32;;;;;;;;;;;;;;;13.63;100.00;99596.11;68541;1278;1015300;-70
2024/02/17 12:13:34;;;;;;;;;;;;;;;13.61;100.00;99596.61;68525;1278;1015765;-69
2024/02/17 12:16:38;;;;;;;;;;;;;;;13.64;100.00;99601.52;68540;1278;1015353;-69
2024/02/17 12:19:40;;;;;;;;;;;;;;;13.71;100.00;99600.21;68530;1278;1015381;-69
2024/02/17 12:22:44;;;;;;;;;;;;;;;13.80;100.00;99602.80;68514;1278;1016130;-70
2024/02/17 12:25:50;;;;;;;;;;;;;;;13.97;100.00;99602.78;68521;1278;1015721;-69
2024/02/17 12:28:52;;;;;;;;;;;;;;;14.04;100.00;99606.95;68513;1278;1016181;-69
2024/02/17 12:31:58;;;;;;;;;;;;;;;14.13;100.00;99605.00;68523;1278;1015242;-69
2024/02/17 12:35:00;;;;;;;;;;;;;;;14.16;100.00;99610.80;68516;1278;1016059;-69
2024/02/17 12:38:03;;;;;;;;;;;;;;;14.19;100.00;99613.92;68534;1278;1016100;-69
2024/02/17 12:41:05;;;;;;;;;;;;;;;14.19;100.00;99618.16;68522;1278;1015368;-69
2024/02/17 12:44:09;;;;;;;;;;;;;;;14.09;100.00;99624.27;68526;1278;1016154;-69
2024/02/17 12:47:11;;;;;;;;;;;;;;;14.07;100.00;99630.55;68519;1278;1015753;-70
2024/02/17 12:50:14;;;;;;;;;;;;;;;14.03;100.00;99630.60;68535;1278;1015765;-69
2024/02/17 12:53:17;;;;;;;;;;;;;;;14.02;100.00;99633.98;68538;1278;1015338;-69
2024/02/17 12:56:21;;;;;;;;;;;;;;;14.10;100.00;99638.56;68539;1278;1015657;-70
2024/02/17 12:59:23;;;;;;;;;;;;;;;14.27;100.00;99642.45;68525;1278;1016128;-69
2024/02/17 13:02:36;;;;;;;;;;;;;;;;;;;;;
2024/02/17 13:05:44;;;;;;;;;;;;;;;14.22;100.00;99649.23;68533;1278;1015654;-61
2024/02/17 13:08:46;;;;;;;;;;;;;;;14.23;100.00;99651.54;68540;1278;1016251;-69
2024/02/17 13:11:49;;;;;;;;;;;;;;;14.25;100.00;99647.48;68534;1278;1016218;-69
2024/02/17 13:14:52;;;;;;;;;;;;;;;14.42;100.00;99642.90;68517;1278;1015834;-69
2024/02/17 13:17:55;;;;;;;;;;;;;;;14.66;100.00;99644.95;68519;1278;1015340;-69
2024/02/17 13:20:57;;;;;;;;;;;;;;;14.82;99.73;99640.92;68501;1278;1016261;-67
2024/02/17 13:24:01;;;;;;;;;;;;;;;14.88;99.90;99636.96;68535;1278;1015155;-69
2024/02/17 13:27:04;;;;;;;;;;;;;;;14.99;99.54;99640.80;68524;1278;1015794;-69
2024/02/17 13:30:08;;;;;;;;;;;;;;;15.09;96.11;99639.86;68537;1278;1015457;-69
2024/02/17 13:33:10;;;;;;;;;;;;;;;15.13;93.75;99643.61;68526;1278;1015383;-70
2024/02/17 13:36:13;;;;;;;;;;;;;;;15.22;95.00;99643.68;68500;1278;1015879;-69
2024/02/17 13:39:16;;;;;;;;;;;;;;;15.20;93.24;99642.59;68446;1279;1015881;-69
2024/02/17 13:42:18;;;;;;;;;;;;;;;15.12;91.75;99653.35;68413;1279;1015647;-64
2024/02/17 13:45:21;;;;;;;;;;;;;;;15.09;90.64;99650.94;68414;1279;1015688;-69
2024/02/17 13:48:23;;;;;;;;;;;;;;;15.13;89.75;99647.63;68408;1279;1015473;-69
2024/02/17 13:51:26;;;;;;;;;;;;;;;15.11;89.88;99651.14;68413;1279;1015254;-69
2024/02/17 13:54:28;;;;;;;;;;;;;;;15.11;90.66;99652.18;68428;1279;1015722;-69
2024/02/17 13:57:31;;;;;;;;;;;;;;;15.10;90.20;99652.96;68426;1279;1016081;-69
2024/02/17 14:00:33;;;;;;;;;;;;;;;15.12;90.79;99651.10;68414;1279;1015758;-69
2024/02/17 14:03:37;;;;;;;;;;;;;;;15.35;89.65;99653.92;68427;1279;1015905;-70
2024/02/17 14:06:40;;;;;;;;;;;;;;;15.32;90.35;99658.92;68424;1279;1015750;-69
2024/02/17 14:09:42;;;;;;;;;;;;;;;15.40;88.69;99664.03;68421;1279;1015758;-69
2024/02/17 14:12:45;;;;;;;;;;;;;;;15.16;88.46;99670.52;68422;1279;1015638;-70
2024/02/17 14:15:47;;;;;;;;;;;;;;;15.00;90.52;99672.46;68432;1279;1015972;-69
2024/02/17 14:18:50;;;;;;;;;;;;;;;14.86;91.34;99676.52;68445;1279;1015421;-69
2024/02/17 14:22:01;;;;;;;;;;;;;;;14.79;92.14;99681.23;68384;1279;1015566;-69
2024/02/17 14:25:03;;;;;;;;;;;;;;;14.88;91.93;99681.16;68443;1279;1016159;-69
2024/02/17 14:28:06;;;;;;;;;;;;;;;14.81;91.47;99689.38;68429;1279;1016426;-69
2024/02/17 14:31:08;;;;;;;;;;;;;;;14.79;90.96;99694.75;68437;1279;1015885;-69
2024/02/17 14:34:12;;;;;;;;;;;;;;;14.63;92.97;99696.82;68432;1279;1015689;-69
2024/02/17 14:37:15;;;;;;;;;;;;;;;14.55;93.31;99699.09;68423;1278;1015430;-69
2024/02/17 14:40:19;;;;;;;;;;;;;;;14.54;92.37;99709.00;68542;1278;1015334;-69
2024/02/17 14:43:21;;;;;;;;;;;;;;;14.53;92.43;99708.70;68540;1278;1015527;-69
2024/02/17 14:46:24;;;;;;;;;;;;;;;14.58;91.38;99714.73;68530;1278;1015176;-69
2024/02/17 14:49:26;;;;;;;;;;;;;;;14.61;91.21;99716.70;68538;1278;1016323;-69
2024/02/17 14:52:29;;;;;;;;;;;;;;;14.64;90.50;99723.01;68524;1278;1015149;-69
2024/02/17 14:55:31;;;;;;;;;;;;;;;14.62;90.37;99718.93;68535;1278;1016085;-70
2024/02/17 14:58:36;;;;;;;;;;;;;;;14.57;91.36;99723.59;68547;1278;1015584;-69
2024/02/17 15:01:39;;;;;;;;;;;;;;;14.51;91.41;99726.08;68539;1278;1015998;-70
2024/02/17 15:04:41;;;;;;;;;;;;;;;14.48;91.00;99733.48;68532;1278;1015433;-70
2024/02/17 15:07:44;;;;;;;;;;;;;;;14.44;89.69;99737.12;68498;1278;1015540;-69
2024/02/17 15:10:51;;;;;;;;;;;;;;;14.35;89.17;99736.78;68507;1278;1014306;-69
2024/02/17 15:13:54;;;;;;;;;;;;;;;14.31;89.29;99737.69;68527;1278;1016311;-69
2024/02/17 15:16:56;;;;;;;;;;;;;;;14.31;89.28;99741.58;68546;1278;1015603;-69
2024/02/17 15:19:59;;;;;;;;;;;;;;;14.28;88.86;99741.97;68530;1278;1015831;-69
2024/02/17 15:23:01;;;;;;;;;;;;;;;14.26;89.39;99742.80;68508;1278;1015708;-69
2024/02/17 15:26:04;;;;;;;;;;;;;;;14.17;90.15;99743.28;68537;1278;1014277;-69
2024/02/17 15:29:06;;;;;;;;;;;;;;;14.22;89.93;99747.94;68529;1278;1015581;-69
2024/02/17 15:32:09;;;;;;;;;;;;;;;14.26;90.06;99754.04;68553;1278;1015988;-70
2024/02/17 15:35:12;;;;;;;;;;;;;;;14.14;91.28;99756.68;68522;1278;1015668;-69